createdAt,value
2022-11-06T00:01:48.852Z,91.04
2022-11-06T00:04:17.233Z,91.39
2022-11-06T00:06:50.899Z,91.03
2022-11-06T00:09:20.387Z,91.08
2022-11-06T00:11:49.459Z,91.44
2022-11-06T00:14:17.455Z,91.53
2022-11-06T00:16:47.322Z,91.85
2022-11-06T00:19:15.508Z,91.53
2022-11-06T00:21:43.289Z,91.42
2022-11-06T00:24:12.138Z,91.49
2022-11-06T00:26:40.343Z,90.79
2022-11-06T00:29:08.130Z,90.84
2022-11-06T00:31:37.115Z,91.30
2022-11-06T00:34:06.788Z,91.71
2022-11-06T00:36:34.537Z,91.69
2022-11-06T00:39:02.347Z,91.62
2022-11-06T00:41:30.062Z,91.23
2022-11-06T00:44:01.830Z,91.48
2022-11-06T00:46:29.956Z,91.36
2022-11-06T00:48:57.547Z,90.59
2022-11-06T00:51:33.047Z,90.98
2022-11-06T00:54:02.648Z,90.92
2022-11-06T00:56:30.810Z,90.60
2022-11-06T00:59:02.244Z,89.55
2022-11-06T01:01:31.868Z,89.75
2022-11-06T01:04:04.837Z,89.51
2022-11-06T01:06:37.193Z,89.45
2022-11-06T01:09:05.279Z,89.24
2022-11-06T01:12:06.825Z,89.34
2022-11-06T01:14:30.490Z,90.04
2022-11-06T01:16:58.576Z,89.92
2022-11-06T01:19:26.310Z,89.75
2022-11-06T01:21:54.564Z,89.82
2022-11-06T01:24:25.000Z,89.54
2022-11-06T01:27:24.260Z,89.14
2022-11-06T01:29:42.180Z,88.39
2022-11-06T01:32:09.815Z,88.79
2022-11-06T01:34:37.351Z,88.79
2022-11-06T01:37:05.607Z,88.27
2022-11-06T01:39:33.301Z,88.20
2022-11-06T01:42:01.192Z,88.21
2022-11-06T01:44:31.794Z,88.10
2022-11-06T01:47:03.027Z,88.47
2022-11-06T01:49:35.072Z,88.27
2022-11-06T01:52:08.090Z,88.58
2022-11-06T01:54:38.125Z,88.75
2022-11-06T01:57:05.728Z,88.24
2022-11-06T01:59:36.883Z,88.59
2022-11-06T02:02:04.938Z,88.75
2022-11-06T02:04:36.366Z,88.23
2022-11-06T02:07:04.228Z,88.06
2022-11-06T02:09:33.741Z,87.61
2022-11-06T02:12:20.204Z,88.36
2022-11-06T02:15:12.254Z,88.10
2022-11-06T02:17:57.656Z,88.34
2022-11-06T02:20:53.396Z,88.08
2022-11-06T02:23:31.734Z,88.72
2022-11-06T02:26:02.234Z,88.31
2022-11-06T02:28:35.638Z,88.05
2022-11-06T02:31:05.218Z,88.20
2022-11-06T02:33:40.779Z,88.89
2022-11-06T02:36:10.478Z,88.70
2022-11-06T02:38:43.403Z,89.26
2022-11-06T02:41:14.774Z,88.87
2022-11-06T02:43:43.389Z,89.03
2022-11-06T02:46:17.534Z,88.96
2022-11-06T02:48:47.904Z,88.76
2022-11-06T02:51:16.321Z,88.95
2022-11-06T02:53:44.213Z,88.80
2022-11-06T02:56:16.800Z,89.27
2022-11-06T02:58:49.185Z,89.67
2022-11-06T03:01:19.979Z,90.11
2022-11-06T03:03:52.044Z,90.12
2022-11-06T03:06:24.295Z,90.03
2022-11-06T03:09:03.415Z,90.39
2022-11-06T03:11:36.007Z,90.46
2022-11-06T03:14:17.209Z,90.63
2022-11-06T03:16:47.695Z,90.77
2022-11-06T03:19:25.982Z,90.60
2022-11-06T03:22:04.450Z,90.86
2022-11-06T03:24:45.465Z,91.19
2022-11-06T03:27:34.704Z,91.07
2022-11-06T03:30:07.184Z,90.99
2022-11-06T03:32:48.540Z,90.93
2022-11-06T03:35:29.594Z,90.67
2022-11-06T03:38:17.643Z,90.87
2022-11-06T03:40:52.040Z,90.43
2022-11-06T03:43:22.359Z,90.15
2022-11-06T03:45:50.506Z,89.83
2022-11-06T03:48:29.559Z,90.58
2022-11-06T03:51:14.903Z,90.31
2022-11-06T03:54:26.325Z,90.17
2022-11-06T03:57:21.695Z,89.87
2022-11-06T03:59:55.059Z,90.04
2022-11-06T04:02:22.863Z,89.82
2022-11-06T04:04:56.040Z,90.14
2022-11-06T04:07:26.383Z,90.25
2022-11-06T04:10:14.543Z,90.66
2022-11-06T04:13:00.891Z,90.59
2022-11-06T04:15:31.654Z,90.73
2022-11-06T04:18:03.961Z,91.02
2022-11-06T04:20:54.696Z,90.54
2022-11-06T04:24:16.247Z,90.29
2022-11-06T04:27:02.685Z,90.09
2022-11-06T04:29:37.587Z,90.20
2022-11-06T04:32:12.222Z,89.98
2022-11-06T04:34:47.075Z,90.85
2022-11-06T04:37:20.566Z,91.24
2022-11-06T04:40:10.109Z,91.32
2022-11-06T04:42:54.217Z,91.15
2022-11-06T04:45:38.278Z,91.70
2022-11-06T04:48:06.139Z,91.97
2022-11-06T04:50:37.275Z,91.78
2022-11-06T04:53:04.889Z,92.15
2022-11-06T04:55:33.118Z,92.10
2022-11-06T04:58:00.729Z,92.55
2022-11-06T05:00:28.945Z,92.49
2022-11-06T05:02:56.537Z,92.04
2022-11-06T05:05:24.108Z,92.38
2022-11-06T05:07:51.672Z,91.86
2022-11-06T05:10:19.216Z,91.63
2022-11-06T05:12:50.710Z,91.84
2022-11-06T05:15:19.027Z,91.85
2022-11-06T05:17:47.239Z,91.51
2022-11-06T05:20:14.953Z,91.72
2022-11-06T05:22:58.188Z,91.48
2022-11-06T05:25:28.549Z,90.78
2022-11-06T05:27:56.306Z,90.87
2022-11-06T05:30:24.602Z,90.59
2022-11-06T05:32:52.519Z,90.93
2022-11-06T05:35:21.020Z,90.75
2022-11-06T05:37:49.163Z,90.34
2022-11-06T05:40:16.936Z,90.41
2022-11-06T05:42:45.171Z,90.81
2022-11-06T05:45:12.863Z,90.50
2022-11-06T05:47:41.780Z,89.80
2022-11-06T05:50:10.248Z,90.07
2022-11-06T05:52:38.063Z,90.31
2022-11-06T05:55:10.178Z,90.26
2022-11-06T05:57:40.930Z,90.64
2022-11-06T06:00:09.759Z,90.20
2022-11-06T06:02:44.004Z,90.32
2022-11-06T06:05:11.779Z,90.19
2022-11-06T06:07:39.329Z,90.24
2022-11-06T06:10:07.780Z,90.50
2022-11-06T06:12:35.522Z,89.90
2022-11-06T06:15:03.251Z,90.58
2022-11-06T06:17:31.825Z,90.84
2022-11-06T06:19:59.574Z,90.04
2022-11-06T06:22:28.152Z,89.55
2022-11-06T06:24:56.366Z,89.67
2022-11-06T06:27:25.990Z,90.16
2022-11-06T06:29:56.979Z,89.05
2022-11-06T06:32:25.779Z,89.26
2022-11-06T06:34:53.449Z,88.97
2022-11-06T06:37:21.151Z,88.37
2022-11-06T06:39:48.739Z,88.04
2022-11-06T06:42:16.498Z,88.88
2022-11-06T06:44:43.990Z,88.74
2022-11-06T06:47:11.661Z,88.10
2022-11-06T06:49:39.876Z,87.71
2022-11-06T06:52:07.995Z,87.37
2022-11-06T06:54:35.499Z,86.70
2022-11-06T06:57:03.765Z,86.71
2022-11-06T06:59:31.499Z,85.39
2022-11-06T07:01:59.572Z,84.82
2022-11-06T07:04:27.283Z,83.72
2022-11-06T07:06:56.380Z,83.99
2022-11-06T07:09:26.676Z,84.12
2022-11-06T07:11:55.135Z,84.06
2022-11-06T07:14:22.653Z,83.20
2022-11-06T07:16:54.194Z,83.50
2022-11-06T07:19:22.001Z,83.73
2022-11-06T07:21:53.339Z,82.50
2022-11-06T07:24:21.278Z,82.56
2022-11-06T07:26:50.022Z,82.63
2022-11-06T07:29:17.655Z,82.63
2022-11-06T07:31:46.312Z,82.22
2022-11-06T07:34:14.159Z,81.83
2022-11-06T07:36:44.016Z,80.45
2022-11-06T07:39:11.714Z,80.94
2022-11-06T07:41:42.185Z,81.41
2022-11-06T07:44:10.420Z,79.33
2022-11-06T07:46:39.671Z,79.60
2022-11-06T07:49:07.560Z,79.32
2022-11-06T07:51:35.397Z,78.44
2022-11-06T07:54:02.966Z,79.22
2022-11-06T07:56:30.820Z,76.52
2022-11-06T07:58:58.409Z,77.20
2022-11-06T08:01:26.717Z,77.93
2022-11-06T08:03:54.567Z,77.64
2022-11-06T08:06:23.657Z,78.38
2022-11-06T08:08:56.156Z,77.25
2022-11-06T08:11:26.309Z,77.20
2022-11-06T08:13:53.954Z,75.80
2022-11-06T08:16:21.537Z,77.27
2022-11-06T08:18:49.051Z,74.36
2022-11-06T08:21:17.872Z,74.46
2022-11-06T08:23:46.871Z,73.61
2022-11-06T08:26:14.424Z,73.91
2022-11-06T08:28:43.899Z,75.15
2022-11-06T08:31:11.632Z,74.75
2022-11-06T08:33:39.917Z,74.50
2022-11-06T08:36:08.349Z,75.23
2022-11-06T08:38:37.221Z,74.40
2022-11-06T08:41:09.285Z,75.39
2022-11-06T08:43:38.753Z,73.20
2022-11-06T08:46:07.162Z,72.92
2022-11-06T08:48:35.663Z,72.62
2022-11-06T08:51:05.361Z,73.03
2022-11-06T08:53:33.119Z,72.65
2022-11-06T08:56:02.977Z,72.13
2022-11-06T08:58:30.667Z,72.25
2022-11-06T09:00:58.230Z,72.94
2022-11-06T09:03:25.823Z,73.56
2022-11-06T09:05:54.582Z,70.61
2022-11-06T09:08:22.435Z,70.76
2022-11-06T09:10:54.460Z,70.66
2022-11-06T09:13:25.125Z,69.05
2022-11-06T09:15:55.607Z,68.73
2022-11-06T09:18:23.478Z,68.77
2022-11-06T09:20:55.864Z,68.12
2022-11-06T09:23:23.381Z,67.70
2022-11-06T09:25:50.988Z,68.33
2022-11-06T09:28:19.036Z,69.98
2022-11-06T09:30:47.767Z,67.63
2022-11-06T09:33:15.631Z,67.73
2022-11-06T09:35:43.623Z,67.51
2022-11-06T09:38:12.185Z,66.86
2022-11-06T09:40:47.226Z,67.14
2022-11-06T09:43:31.848Z,66.74
2022-11-06T09:46:27.665Z,66.30
2022-11-06T09:49:01.671Z,67.63
2022-11-06T09:51:39.816Z,67.34
2022-11-06T09:54:31.646Z,66.34
2022-11-06T09:57:04.357Z,65.16
2022-11-06T09:59:32.668Z,65.40
2022-11-06T10:02:03.730Z,66.40
2022-11-06T10:04:36.026Z,65.54
2022-11-06T10:07:03.630Z,64.40
2022-11-06T10:09:31.256Z,65.37
2022-11-06T10:12:06.875Z,64.65
2022-11-06T10:15:01.528Z,64.37
2022-11-06T10:17:32.843Z,64.68
2022-11-06T10:20:09.264Z,64.66
2022-11-06T10:22:42.486Z,64.73
2022-11-06T10:25:24.692Z,64.46
2022-11-06T10:28:35.678Z,64.20
2022-11-06T10:31:32.367Z,63.25
2022-11-06T10:34:02.826Z,63.85
2022-11-06T10:36:38.695Z,64.27
2022-11-06T10:39:10.636Z,63.94
2022-11-06T10:41:40.010Z,66.05
2022-11-06T10:44:52.885Z,64.03
2022-11-06T10:47:22.537Z,64.64
2022-11-06T10:49:57.725Z,62.41
2022-11-06T10:52:56.079Z,63.31
2022-11-06T10:55:30.996Z,62.52
2022-11-06T10:58:01.456Z,63.70
2022-11-06T11:00:29.127Z,64.09
2022-11-06T11:02:57.395Z,64.82
2022-11-06T11:05:26.496Z,64.55
2022-11-06T11:07:55.290Z,65.08
2022-11-06T11:10:31.818Z,64.04
2022-11-06T11:13:06.883Z,64.25
2022-11-06T11:15:45.542Z,64.82
2022-11-06T11:18:18.849Z,64.30
2022-11-06T11:20:51.289Z,63.78
2022-11-06T11:23:19.104Z,63.21
2022-11-06T11:25:55.851Z,62.70
2022-11-06T11:28:32.647Z,63.50
2022-11-06T11:31:15.652Z,63.84
2022-11-06T11:33:54.622Z,62.92
2022-11-06T11:36:22.500Z,62.76
2022-11-06T11:38:50.108Z,62.96
2022-11-06T11:41:20.682Z,62.86
2022-11-06T11:44:14.444Z,63.28
2022-11-06T11:46:53.230Z,61.49
2022-11-06T11:49:34.022Z,62.85
2022-11-06T11:52:03.084Z,61.09
2022-11-06T11:54:32.434Z,60.87
2022-11-06T11:57:17.544Z,61.57
2022-11-06T11:59:48.121Z,62.06
2022-11-06T12:02:30.330Z,62.30
2022-11-06T12:05:03.902Z,62.59
2022-11-06T12:07:39.819Z,62.13
2022-11-06T12:10:34.478Z,62.45
2022-11-06T12:13:07.157Z,62.35
2022-11-06T12:15:46.041Z,62.06
2022-11-06T12:18:18.663Z,61.93
2022-11-06T12:20:54.685Z,61.25
2022-11-06T12:23:37.437Z,61.57
2022-11-06T12:26:15.594Z,62.98
2022-11-06T12:28:43.673Z,63.83
2022-11-06T12:31:37.269Z,64.31
2022-11-06T12:34:07.890Z,64.29
2022-11-06T12:36:41.621Z,64.43
2022-11-06T12:39:22.039Z,63.92
2022-11-06T12:41:49.791Z,64.83
2022-11-06T12:44:20.560Z,65.01
2022-11-06T12:47:42.592Z,66.70
2022-11-06T12:50:41.828Z,67.02
2022-11-06T12:53:24.614Z,67.70
2022-11-06T12:56:17.467Z,68.74
2022-11-06T12:58:48.330Z,68.27
2022-11-06T13:01:38.583Z,68.34
2022-11-06T13:04:21.712Z,68.96
2022-11-06T13:07:07.779Z,68.99
2022-11-06T13:09:42.108Z,69.20
2022-11-06T13:12:22.830Z,69.48
2022-11-06T13:15:05.523Z,69.85
2022-11-06T13:17:45.479Z,69.50
2022-11-06T13:20:44.960Z,70.09
2022-11-06T13:23:33.083Z,70.47
2022-11-06T13:26:13.543Z,70.37
2022-11-06T13:28:49.913Z,70.55
2022-11-06T13:31:18.893Z,70.82
2022-11-06T13:33:48.839Z,70.50
2022-11-06T13:36:16.576Z,69.83
2022-11-06T13:38:52.694Z,70.60
2022-11-06T13:41:28.055Z,70.81
2022-11-06T13:44:06.468Z,71.17
2022-11-06T13:46:37.959Z,72.29
2022-11-06T13:49:28.318Z,72.23
2022-11-06T13:52:00.965Z,72.85
2022-11-06T13:54:36.618Z,72.43
2022-11-06T13:57:28.040Z,72.26
2022-11-06T14:00:10.689Z,72.50
2022-11-06T14:02:50.354Z,73.02
2022-11-06T14:05:33.701Z,72.69
2022-11-06T14:08:03.741Z,72.55
2022-11-06T14:10:37.282Z,73.02
2022-11-06T14:13:05.318Z,73.10
2022-11-06T14:15:39.863Z,73.13
2022-11-06T14:18:13.729Z,73.50
2022-11-06T14:20:43.044Z,73.53
2022-11-06T14:23:29.050Z,73.59
2022-11-06T14:26:01.148Z,73.43
2022-11-06T14:28:35.748Z,73.30
2022-11-06T14:31:13.242Z,73.21
2022-11-06T14:33:43.332Z,73.70
2022-11-06T14:36:23.903Z,73.64
2022-11-06T14:38:52.351Z,72.78
2022-11-06T14:41:35.064Z,72.75
2022-11-06T14:44:16.213Z,72.64
2022-11-06T14:46:52.150Z,73.51
2022-11-06T14:49:44.241Z,71.35
2022-11-06T14:52:13.091Z,71.79
2022-11-06T14:54:49.607Z,71.61
2022-11-06T14:57:18.356Z,71.77
2022-11-06T14:59:46.253Z,72.81
2022-11-06T15:02:25.443Z,72.97
2022-11-06T15:05:01.380Z,72.76
2022-11-06T15:08:08.062Z,72.97
2022-11-06T15:10:44.128Z,73.22
2022-11-06T15:13:13.714Z,74.17
2022-11-06T15:16:04.218Z,74.15
2022-11-06T15:18:33.376Z,74.21
2022-11-06T15:21:03.251Z,74.81
2022-11-06T15:24:05.187Z,74.23
2022-11-06T15:27:08.035Z,74.80
2022-11-06T15:29:42.456Z,74.70
2022-11-06T15:32:18.794Z,76.49
2022-11-06T15:35:05.620Z,75.43
2022-11-06T15:37:39.720Z,74.38
2022-11-06T15:40:22.337Z,74.35
2022-11-06T15:42:50.096Z,75.81
2022-11-06T15:45:22.216Z,76.23
2022-11-06T15:48:04.720Z,75.87
2022-11-06T15:50:34.163Z,76.57
2022-11-06T15:53:14.346Z,76.62
2022-11-06T15:55:51.541Z,76.28
2022-11-06T15:58:19.535Z,75.78
2022-11-06T16:00:48.532Z,76.64
2022-11-06T16:03:18.690Z,76.81
2022-11-06T16:05:46.703Z,75.72
2022-11-06T16:08:15.296Z,76.02
2022-11-06T16:10:44.431Z,76.14
2022-11-06T16:13:16.919Z,76.04
2022-11-06T16:15:45.459Z,76.68
2022-11-06T16:18:13.865Z,75.70
2022-11-06T16:20:54.587Z,75.53
2022-11-06T16:23:38.779Z,75.33
2022-11-06T16:26:11.110Z,75.19
2022-11-06T16:28:43.595Z,75.40
2022-11-06T16:31:19.489Z,75.42
2022-11-06T16:33:56.267Z,76.13
2022-11-06T16:36:24.791Z,76.34
2022-11-06T16:38:53.953Z,76.86
2022-11-06T16:41:40.080Z,76.02
2022-11-06T16:44:29.310Z,76.32
2022-11-06T16:47:05.148Z,76.97
2022-11-06T16:49:42.196Z,76.15
2022-11-06T16:52:30.555Z,77.07
2022-11-06T16:55:17.085Z,76.55
2022-11-06T16:57:53.699Z,76.63
2022-11-06T17:00:21.543Z,76.94
2022-11-06T17:02:51.231Z,77.18
2022-11-06T17:05:22.012Z,77.37
2022-11-06T17:08:21.439Z,77.67
2022-11-06T17:10:53.914Z,76.80
2022-11-06T17:13:22.668Z,77.25
2022-11-06T17:15:58.312Z,76.67
2022-11-06T17:18:54.173Z,77.17
2022-11-06T17:21:24.460Z,77.50
2022-11-06T17:23:53.356Z,77.32
2022-11-06T17:26:28.051Z,76.39
2022-11-06T17:28:56.988Z,76.78
2022-11-06T17:31:24.710Z,76.58
2022-11-06T17:33:53.452Z,76.15
2022-11-06T17:36:22.885Z,76.72
2022-11-06T17:38:50.791Z,76.02
2022-11-06T17:41:30.168Z,75.11
2022-11-06T17:44:00.910Z,75.49
2022-11-06T17:46:33.461Z,75.23
2022-11-06T17:49:02.521Z,74.66
2022-11-06T17:51:49.345Z,74.70
2022-11-06T17:54:17.862Z,75.80
2022-11-06T17:56:46.038Z,75.16
2022-11-06T17:59:13.981Z,75.69
2022-11-06T18:01:41.904Z,75.70
2022-11-06T18:04:10.597Z,75.39
2022-11-06T18:06:39.488Z,76.65
2022-11-06T18:09:07.565Z,76.72
2022-11-06T18:11:35.237Z,76.36
2022-11-06T18:14:03.396Z,77.60
2022-11-06T18:16:32.950Z,77.50
2022-11-06T18:19:00.593Z,77.87
2022-11-06T18:21:30.504Z,77.70
2022-11-06T18:23:58.064Z,79.40
2022-11-06T18:26:26.656Z,78.93
2022-11-06T18:28:54.279Z,78.25
2022-11-06T18:31:21.999Z,78.17
2022-11-06T18:33:49.704Z,78.82
2022-11-06T18:36:17.392Z,79.11
2022-11-06T18:38:45.148Z,80.02
2022-11-06T18:41:14.687Z,79.90
2022-11-06T18:43:42.379Z,80.33
2022-11-06T18:46:12.059Z,79.65
2022-11-06T18:48:39.700Z,78.80
2022-11-06T18:51:10.846Z,79.67
2022-11-06T18:53:38.911Z,80.69
2022-11-06T18:56:09.767Z,79.75
2022-11-06T18:58:37.291Z,80.02
2022-11-06T19:01:09.716Z,79.42
2022-11-06T19:03:38.577Z,79.38
2022-11-06T19:06:10.766Z,80.39
2022-11-06T19:08:38.705Z,79.32
2022-11-06T19:11:07.364Z,79.29
2022-11-06T19:13:35.991Z,79.85
2022-11-06T19:16:05.978Z,80.10
2022-11-06T19:18:36.090Z,80.01
2022-11-06T19:21:05.278Z,80.31
2022-11-06T19:23:34.230Z,79.77
2022-11-06T19:26:30.005Z,79.90
2022-11-06T19:28:56.467Z,79.75
2022-11-06T19:31:29.122Z,80.12
2022-11-06T19:33:58.277Z,81.92
2022-11-06T19:36:26.075Z,81.63
2022-11-06T19:38:54.278Z,80.90
2022-11-06T19:41:21.855Z,80.88
2022-11-06T19:43:49.803Z,80.19
2022-11-06T19:46:25.718Z,80.71
2022-11-06T19:48:55.232Z,80.98
2022-11-06T19:51:23.113Z,80.48
2022-11-06T19:53:54.095Z,80.35
2022-11-06T19:56:21.802Z,80.88
2022-11-06T19:58:50.837Z,81.67
2022-11-06T20:01:19.627Z,81.40
2022-11-06T20:03:47.636Z,81.51
2022-11-06T20:06:16.583Z,81.68
2022-11-06T20:08:49.360Z,81.56
2022-11-06T20:11:18.354Z,82.33
2022-11-06T20:13:46.719Z,82.95
2022-11-06T20:16:16.867Z,82.40
2022-11-06T20:18:49.644Z,81.44
2022-11-06T20:21:17.283Z,82.68
2022-11-06T20:23:45.583Z,82.17
2022-11-06T20:26:13.378Z,82.13
2022-11-06T20:28:41.038Z,81.66
2022-11-06T20:31:09.443Z,79.88
2022-11-06T20:33:37.956Z,79.97
2022-11-06T20:36:13.507Z,80.15
2022-11-06T20:38:44.849Z,79.74
2022-11-06T20:41:13.302Z,79.85
2022-11-06T20:43:43.008Z,79.73
2022-11-06T20:46:11.410Z,79.79
2022-11-06T20:48:39.418Z,80.31
2022-11-06T20:51:08.411Z,80.19
2022-11-06T20:53:36.139Z,80.91
2022-11-06T20:56:04.799Z,80.54
2022-11-06T20:58:32.382Z,80.47
2022-11-06T21:01:18.365Z,81.07
2022-11-06T21:03:46.400Z,81.53
2022-11-06T21:06:14.275Z,81.81
2022-11-06T21:08:42.167Z,82.01
2022-11-06T21:11:16.799Z,81.64
2022-11-06T21:13:46.778Z,80.30
2022-11-06T21:16:25.235Z,80.92
2022-11-06T21:18:53.762Z,80.22
2022-11-06T21:21:23.796Z,80.17
2022-11-06T21:23:51.620Z,80.36
2022-11-06T21:26:21.611Z,80.97
2022-11-06T21:28:49.268Z,81.05
2022-11-06T21:31:18.682Z,80.82
2022-11-06T21:33:47.883Z,80.09
2022-11-06T21:36:23.632Z,80.73
2022-11-06T21:38:51.797Z,80.76
2022-11-06T21:41:21.528Z,81.27
2022-11-06T21:43:49.332Z,81.73
2022-11-06T21:46:17.389Z,81.94
2022-11-06T21:48:46.967Z,82.41
2022-11-06T21:51:20.674Z,81.94
2022-11-06T21:54:07.287Z,81.54
2022-11-06T21:56:37.461Z,81.26
2022-11-06T21:59:06.363Z,81.63
2022-11-06T22:01:34.117Z,82.21
2022-11-06T22:04:02.162Z,82.16
2022-11-06T22:06:30.077Z,82.06
2022-11-06T22:08:59.120Z,82.21
2022-11-06T22:11:28.478Z,81.58
2022-11-06T22:13:56.904Z,81.14
2022-11-06T22:16:30.642Z,81.02
2022-11-06T22:18:58.327Z,81.02
2022-11-06T22:21:27.312Z,81.50
2022-11-06T22:23:55.028Z,82.09
2022-11-06T22:26:24.450Z,82.27
2022-11-06T22:28:56.251Z,81.62
2022-11-06T22:31:24.109Z,83.17
2022-11-06T22:33:54.021Z,82.83
2022-11-06T22:36:22.232Z,81.46
2022-11-06T22:38:49.896Z,81.23
2022-11-06T22:41:20.646Z,81.14
2022-11-06T22:43:49.653Z,81.65
2022-11-06T22:46:21.932Z,81.54
2022-11-06T22:48:50.385Z,81.81
2022-11-06T22:51:22.902Z,81.87
2022-11-06T22:53:51.205Z,82.78
2022-11-06T22:56:21.651Z,82.38
2022-11-06T22:58:53.768Z,82.37
2022-11-06T23:01:23.640Z,81.38
2022-11-06T23:03:51.383Z,82.51
2022-11-06T23:06:19.026Z,82.01
2022-11-06T23:08:47.312Z,81.71
2022-11-06T23:11:15.719Z,80.89
2022-11-06T23:13:46.183Z,81.24
2022-11-06T23:16:40.093Z,81.04
2022-11-06T23:19:07.752Z,81.10
2022-11-06T23:21:37.058Z,80.99
2022-11-06T23:24:06.175Z,81.85
2022-11-06T23:26:35.038Z,81.68
2022-11-06T23:29:02.924Z,82.30
2022-11-06T23:31:33.369Z,82.04
2022-11-06T23:34:01.608Z,82.19
2022-11-06T23:36:29.386Z,81.46
2022-11-06T23:38:57.008Z,81.30
2022-11-06T23:41:54.672Z,80.95
2022-11-06T23:44:40.987Z,80.75
2022-11-06T23:47:08.713Z,80.88
2022-11-06T23:49:36.415Z,81.70
2022-11-06T23:52:04.481Z,81.22
2022-11-06T23:54:32.263Z,80.77
2022-11-06T23:57:01.468Z,80.18
2022-11-06T23:59:29.903Z,80.05
